Malaa, Sweden

9:25 PM CET on February 01, 2015 (GMT +0100)
Storuman | Change Station
CLOSE
Current Station
Airport
Location: STORUMAN,
Elevation: 915 ft
Nearby Weather Stations

Elev 915 ft 64.96 °N, 17.70 °E | Updated 5 minutes ago

Light Snow
Light Snow
16 °F
Feels Like 6 °F
N
7
Wind Variable Wind from North

Today
High -- | Low -- °F
--% Chance of Precip.
Yesterday
High -- | Low -- °F
Precip. -- in
8:35 AM 3:23 PM
Waxing Gibbous, 96% visible
Pressure 29.15 in
Visibility 1.5 miles
Clouds Mostly Cloudy 0 ft
Windchill 6 °F
Dew Point 12 °F
Humidity 86%
Rainfall 0.00 in
Snow Depth Not available.
UV 0 out of 12
Pollen Not available.
Air Quality Not available.
Flu Activity Not available.
METAR ESUD 012020Z AUTO 01006KT 2400 -SN BKN000/// M09/M11 Q0987

More Conditions Fewer Conditions

Pressure 29.15 in
Visibility 1.5 miles
Clouds Mostly Cloudy 0 ft
Windchill 6 °F
Dew Point 12 °F
Humidity 86%
Rainfall 0.00 in
Snow Depth Not available.
UV 0 out of 12
Pollen Not available.
Air Quality Not available.
Flu Activity Not available.
METAR ESUD 012020Z AUTO 01006KT 2400 -SN BKN000/// M09/M11 Q0987

More Conditions Fewer Conditions

10-Day Weather Forecast

Almanac

Astronomy

Feb. 01, 2015 Rise Set
Actual Time
Civil Twilight
Nautical Twilight
Astronomical Twilight
Moon
Length of Visible Light
Length of Day
Tomorrow will be .
, % of the Moon is Illuminated

Today's Extremes

Country Highs Country Lows

Community

WunderPhotos

Upload Photos

1,792,497 photos uploaded!

WunderBlogs® & News

Nearby

Air Quality

  Air Quality AQ Index Pollutant
Not available.

Snow Depth

Station Depth Elevation

Earthquake Activity

City Distance Mag. Time & Date
Minimum magnitude displayed is 2.5.

Coastal Water Temperatures

Place Temperature

Nearby Weather Stations